Time;durP1;ratioP1;P1;durP2;ratioP2;P2;SDS_P1;SDS_P2;PMS_P1;PMS_P2;Temp;Humidity;BMP_temperature;BMP_pressure;BME280_temperature;BME280_humidity;BME280_pressure;Samples;Min_cycle;Max_cycle;Signal;HPM_P1;HPM_P2
2023/12/19 00:02:03;;;;;;;28.87;11.87;;;;;;;4.15;100.00;102520.59;5037160;28;20116;-90
2023/12/19 00:04:33;;;;;;;26.80;13.13;;;;;;;4.16;100.00;102500.84;5036437;28;20105;-89
2023/12/19 00:06:58;;;;;;;25.90;12.53;;;;;;;4.17;100.00;102507.75;5029701;28;20048;-91
2023/12/19 00:09:24;;;;;;;28.13;12.97;;;;;;;4.18;100.00;102510.38;5036191;28;20052;-89
2023/12/19 00:11:49;;;;;;;26.13;12.77;;;;;;;4.20;100.00;102507.84;5035217;28;20086;-89
2023/12/19 00:14:14;;;;;;;27.23;12.30;;;;;;;4.20;100.00;102497.53;5033221;28;20025;-88
2023/12/19 00:16:40;;;;;;;25.77;12.80;;;;;;;4.22;100.00;102490.72;5035107;28;20029;-91
2023/12/19 00:19:07;;;;;;;28.70;12.40;;;;;;;4.24;100.00;102483.91;5038927;28;20395;-88
2023/12/19 00:21:33;;;;;;;25.57;12.20;;;;;;;4.24;100.00;102491.66;5034139;28;20027;-89
2023/12/19 00:23:58;;;;;;;26.23;12.97;;;;;;;4.26;100.00;102484.84;5035960;28;20111;-92
2023/12/19 00:26:24;;;;;;;24.17;12.67;;;;;;;4.25;100.00;102483.94;5033444;28;20461;-89
2023/12/19 00:28:49;;;;;;;24.07;11.63;;;;;;;4.26;100.00;102474.53;5037901;28;20362;-89
2023/12/19 00:31:21;;;;;;;24.43;12.53;;;;;;;4.28;100.00;102459.94;5035182;28;20029;-87
2023/12/19 00:33:47;;;;;;;29.17;12.50;;;;;;;4.29;100.00;102456.56;5031949;28;20103;-89
2023/12/19 00:36:20;;;;;;;26.27;13.20;;;;;;;4.30;100.00;102458.28;5038464;28;20412;-90
2023/12/19 00:38:45;;;;;;;28.50;13.33;;;;;;;4.29;100.00;102448.81;5033643;28;20045;-90
2023/12/19 00:41:11;;;;;;;28.60;13.03;;;;;;;4.30;100.00;102448.00;5037760;28;20479;-90
2023/12/19 00:43:36;;;;;;;26.73;12.67;;;;;;;4.28;100.00;102434.19;5031494;28;20075;-90
2023/12/19 00:46:02;;;;;;;23.87;11.63;;;;;;;4.34;100.00;102443.81;5037895;28;20534;-89
2023/12/19 00:48:27;;;;;;;25.97;12.00;;;;;;;4.33;100.00;102440.34;5030882;28;20026;-91
2023/12/19 00:50:52;;;;;;;30.63;13.10;;;;;;;4.34;100.00;102429.22;5033638;28;20025;-90
2023/12/19 00:53:19;;;;;;;26.63;12.83;;;;;;;4.37;100.00;102425.81;5030043;28;20488;-88
2023/12/19 00:55:44;;;;;;;25.53;12.60;;;;;;;4.38;100.00;102417.25;5011015;28;20128;-90
2023/12/19 00:58:12;;;;;;;27.70;13.63;;;;;;;4.37;100.00;102413.84;5039273;28;20136;-90
2023/12/19 01:00:37;;;;;;;26.80;12.20;;;;;;;4.37;100.00;102410.38;5034023;28;20041;-90
2023/12/19 01:03:03;;;;;;;25.60;12.93;;;;;;;4.37;100.00;102403.53;5034050;28;20025;-89
2023/12/19 01:05:28;;;;;;;25.07;12.67;;;;;;;4.38;100.00;102409.53;5030183;28;20036;-91
2023/12/19 01:07:54;;;;;;;26.53;12.37;;;;;;;4.37;100.00;102403.53;5031696;28;20474;-89
2023/12/19 01:10:20;;;;;;;31.07;12.93;;;;;;;4.40;100.00;102398.47;5030967;28;20121;-90
2023/12/19 01:12:45;;;;;;;27.80;13.47;;;;;;;4.39;100.00;102394.13;5032040;28;20064;-88
2023/12/19 01:15:11;;;;;;;29.43;14.40;;;;;;;4.40;100.00;102387.25;5033898;28;20417;-89
2023/12/19 01:17:36;;;;;;;27.07;13.00;;;;;;;4.40;100.00;102388.16;5031655;28;20029;-91
2023/12/19 01:20:02;;;;;;;27.57;12.93;;;;;;;4.38;100.00;102384.66;5029158;28;20033;-91
2023/12/19 01:22:27;;;;;;;26.77;12.37;;;;;;;4.37;100.00;102388.06;5030772;28;20018;-92
2023/12/19 01:24:54;;;;;;;28.37;13.00;;;;;;;4.42;100.00;102393.31;5030234;28;20032;-88
2023/12/19 01:27:19;;;;;;;31.80;13.40;;;;;;;4.42;100.00;102401.06;5033321;28;20041;-88
2023/12/19 01:29:46;;;;;;;26.80;13.03;;;;;;;4.42;100.00;102389.91;5030272;28;20071;-90
2023/12/19 01:32:11;;;;;;;27.63;12.90;;;;;;;4.41;100.00;102389.00;5034421;28;20365;-92
2023/12/19 01:34:37;;;;;;;28.87;13.43;;;;;;;4.42;100.00;102385.59;5028785;28;20061;-91
2023/12/19 01:37:02;;;;;;;28.13;13.27;;;;;;;4.43;100.00;102371.03;5032397;28;20087;-91
2023/12/19 01:39:27;;;;;;;29.43;13.20;;;;;;;4.44;100.00;102380.50;5032762;28;20033;-90
2023/12/19 01:41:53;;;;;;;28.73;13.50;;;;;;;4.43;100.00;102376.19;5030792;28;20442;-89
2023/12/19 01:44:19;;;;;;;28.70;13.67;;;;;;;4.44;100.00;102377.94;5032924;28;20427;-89
2023/12/19 01:46:45;;;;;;;27.20;13.47;;;;;;;4.42;100.00;102377.00;5030797;28;20079;-90
2023/12/19 01:49:13;;;;;;;30.87;13.83;;;;;;;4.40;100.00;102383.00;5028613;28;20120;-90
2023/12/19 01:51:38;;;;;;;30.60;14.33;;;;;;;4.42;100.00;102377.88;5035639;28;20087;-88
2023/12/19 01:54:06;;;;;;;26.77;13.07;;;;;;;4.44;100.00;102383.06;5035777;28;20489;-91
2023/12/19 01:56:32;;;;;;;29.87;12.73;;;;;;;4.43;100.00;102374.47;5029594;28;20021;-88
2023/12/19 01:59:00;;;;;;;30.87;14.17;;;;;;;4.43;100.00;102377.03;5033474;28;20565;-88
2023/12/19 02:01:25;;;;;;;30.10;13.83;;;;;;;4.40;100.00;102383.00;5029709;28;20108;-90
2023/12/19 02:03:51;;;;;;;29.07;13.17;;;;;;;4.43;100.00;102374.47;5029449;28;20134;-89
2023/12/19 02:06:20;;;;;;;30.27;13.83;;;;;;;4.44;100.00;102370.19;5032651;28;20025;-88
2023/12/19 02:08:46;;;;;;;30.00;13.40;;;;;;;4.44;100.00;102371.06;5032459;28;20082;-91
2023/12/19 02:11:11;;;;;;;30.63;13.88;;;;;;;4.43;100.00;102373.59;5029811;28;20033;-90
2023/12/19 02:13:39;;;;;;;28.87;13.57;;;;;;;4.45;100.00;102377.94;5029265;28;20034;-90
2023/12/19 02:16:05;;;;;;;30.08;13.38;;;;;;;4.45;100.00;102379.63;5031598;28;20420;-88
2023/12/19 02:18:30;;;;;;;31.20;13.37;;;;;;;4.45;100.00;102362.50;5028860;28;20028;-91
2023/12/19 02:20:56;;;;;;;26.93;13.03;;;;;;;4.44;100.00;102353.00;5032383;28;20079;-89
2023/12/19 02:23:21;;;;;;;27.83;12.93;;;;;;;4.47;100.00;102354.78;5029762;28;20413;-89
2023/12/19 02:25:47;;;;;;;26.77;13.13;;;;;;;4.48;100.00;102353.94;5030111;28;20068;-88
2023/12/19 02:28:12;;;;;;;30.83;13.20;;;;;;;4.47;100.00;102340.22;5033646;28;20717;-90
2023/12/19 02:30:38;;;;;;;30.40;13.50;;;;;;;4.47;100.00;102349.63;5037318;28;20028;-90
2023/12/19 02:33:04;;;;;;;27.67;13.47;;;;;;;4.48;100.00;102341.06;5029898;28;20105;-89
2023/12/19 02:35:30;;;;;;;26.97;13.23;;;;;;;4.47;100.00;102344.47;5029997;28;20022;-89
2023/12/19 02:37:56;;;;;;;30.03;13.17;;;;;;;4.48;100.00;102334.22;5031005;28;20108;-91
2023/12/19 02:40:22;;;;;;;27.90;13.13;;;;;;;4.49;100.00;102340.22;5037307;28;20552;-89
2023/12/19 02:42:48;;;;;;;26.67;12.63;;;;;;;4.50;100.00;102331.66;5037994;28;20067;-90
2023/12/19 02:45:13;;;;;;;31.17;13.50;;;;;;;4.50;100.00;102332.56;5033219;28;20028;-90
2023/12/19 02:47:40;;;;;;;25.33;12.43;;;;;;;4.47;100.00;102324.75;5032869;28;20059;-88
2023/12/19 02:50:06;;;;;;;29.10;13.40;;;;;;;4.48;100.00;102323.03;5039819;28;20033;-90
2023/12/19 02:52:32;;;;;;;29.33;13.37;;;;;;;4.48;100.00;102317.88;5031677;28;20021;-92
2023/12/19 02:54:57;;;;;;;27.02;12.73;;;;;;;4.47;100.00;102308.38;5039520;28;20396;-89
2023/12/19 02:57:22;;;;;;;25.20;12.77;;;;;;;4.49;100.00;102322.19;5045476;28;20021;-88
2023/12/19 02:59:48;;;;;;;26.50;12.47;;;;;;;4.48;100.00;102299.81;5037765;28;20056;-89
2023/12/19 03:02:13;;;;;;;29.13;12.63;;;;;;;4.51;100.00;102292.16;5036185;28;20068;-88
2023/12/19 03:04:39;;;;;;;25.63;12.00;;;;;;;4.51;100.00;102293.06;5032820;28;20083;-89
2023/12/19 03:07:05;;;;;;;24.87;11.10;;;;;;;4.50;100.00;102287.84;5044075;28;20078;-89
2023/12/19 03:09:30;;;;;;;26.43;11.87;;;;;;;4.49;100.00;102287.00;5036636;28;20029;-89
2023/12/19 03:12:01;;;;;;;24.13;11.37;;;;;;;4.50;100.00;102288.75;5032724;28;20040;-88
2023/12/19 03:14:26;;;;;;;25.20;11.38;;;;;;;4.50;100.00;102269.81;5032302;28;20026;-88
2023/12/19 03:16:52;;;;;;;22.60;11.60;;;;;;;4.50;100.00;102269.81;5034886;28;20028;-88
2023/12/19 03:19:17;;;;;;;24.53;11.17;;;;;;;4.50;100.00;102272.38;5035334;28;20227;-89
2023/12/19 03:21:42;;;;;;;25.70;11.07;;;;;;;4.52;100.00;102271.59;5032270;28;20029;-88
2023/12/19 03:24:08;;;;;;;21.10;10.97;;;;;;;4.52;100.00;102257.84;5031933;28;20469;-88
2023/12/19 03:26:33;;;;;;;21.03;10.40;;;;;;;4.55;100.00;102247.59;5035596;28;20021;-88
2023/12/19 03:28:58;;;;;;;20.73;10.47;;;;;;;4.54;100.00;102246.72;5033423;28;20040;-88
2023/12/19 03:31:25;;;;;;;21.17;10.27;;;;;;;4.53;100.00;102244.97;5048043;28;20052;-88
2023/12/19 03:33:50;;;;;;;21.87;11.03;;;;;;;4.53;100.00;102244.13;5032644;28;20029;-88
2023/12/19 03:36:16;;;;;;;21.47;10.60;;;;;;;4.53;100.00;102236.38;5034903;28;20021;-89
2023/12/19 03:38:41;;;;;;;20.97;10.37;;;;;;;4.55;100.00;102225.25;5033136;28;20140;-87
2023/12/19 03:41:07;;;;;;;21.43;10.77;;;;;;;4.55;100.00;102217.53;5035535;28;20025;-89
2023/12/19 03:43:34;;;;;;;23.40;10.57;;;;;;;4.55;100.00;102209.78;5034797;28;20021;-88
2023/12/19 03:46:04;;;;;;;21.03;10.50;;;;;;;4.55;100.00;102203.78;5032927;28;20052;-88
2023/12/19 03:48:29;;;;;;;21.83;10.83;;;;;;;4.56;100.00;102197.78;5032713;28;20033;-89
2023/12/19 03:50:54;;;;;;;21.57;10.53;;;;;;;4.56;100.00;102195.22;5039872;28;20033;-88
2023/12/19 03:53:21;;;;;;;21.33;10.63;;;;;;;4.60;100.00;102196.13;5032235;28;20358;-88
2023/12/19 03:55:46;;;;;;;21.07;10.43;;;;;;;4.58;100.00;102198.69;5031529;28;20044;-88
2023/12/19 03:58:12;;;;;;;23.27;11.30;;;;;;;4.63;100.00;102193.63;5035555;28;20473;-88
2023/12/19 04:00:37;;;;;;;19.50;10.13;;;;;;;4.64;100.00;102190.22;5029434;28;20400;-88
2023/12/19 04:03:04;;;;;;;21.70;10.93;;;;;;;4.65;100.00;102195.41;5032056;28;20096;-87
2023/12/19 04:05:29;;;;;;;22.70;10.97;;;;;;;4.64;100.00;102190.22;5031864;28;20018;-88
2023/12/19 04:07:55;;;;;;;19.73;10.30;;;;;;;4.65;100.00;102191.97;5032133;28;20079;-88
2023/12/19 04:10:21;;;;;;;19.83;9.57;;;;;;;4.66;100.00;102185.97;5035767;28;20022;-88
2023/12/19 04:12:46;;;;;;;21.00;10.17;;;;;;;4.65;100.00;102182.50;5030107;28;20065;-90
2023/12/19 04:15:13;;;;;;;18.93;9.70;;;;;;;4.65;100.00;102182.50;5030466;28;20137;-87
2023/12/19 04:17:39;;;;;;;19.50;9.90;;;;;;;4.64;100.00;102180.75;5030772;28;20026;-88
2023/12/19 04:20:06;;;;;;;20.60;10.23;;;;;;;4.70;100.00;102190.31;5031593;28;20365;-88
2023/12/19 04:22:31;;;;;;;21.17;10.40;;;;;;;4.66;100.00;102181.66;5030721;28;20025;-88
2023/12/19 04:24:57;;;;;;;20.33;10.40;;;;;;;4.68;100.00;102172.25;5032152;28;20033;-88
2023/12/19 04:27:22;;;;;;;19.87;10.17;;;;;;;4.71;100.00;102162.03;5036312;28;20444;-88
2023/12/19 04:29:47;;;;;;;22.03;11.30;;;;;;;4.71;100.00;102145.66;5032087;28;20025;-89
2023/12/19 04:32:13;;;;;;;24.47;11.93;;;;;;;4.74;100.00;102145.72;5032619;28;20697;-87
2023/12/19 04:34:39;;;;;;;25.73;11.63;;;;;;;4.74;100.00;102135.41;5036152;28;20025;-88
2023/12/19 04:37:04;;;;;;;23.67;11.25;;;;;;;4.76;100.00;102132.88;5031010;28;20036;-89
2023/12/19 04:39:30;;;;;;;25.90;12.43;;;;;;;4.79;100.00;102122.59;5032500;28;20033;-88
2023/12/19 04:41:59;;;;;;;26.03;12.20;;;;;;;4.78;100.00;102115.75;5031586;28;20064;-88
2023/12/19 04:44:24;;;;;;;26.47;13.03;;;;;;;4.78;100.00;102110.59;5031480;28;20026;-87
2023/12/19 04:46:50;;;;;;;30.37;13.73;;;;;;;4.80;100.00;102108.88;5032482;28;20100;-88
2023/12/19 04:49:15;;;;;;;26.42;12.30;;;;;;;4.81;100.00;102115.78;5037163;28;20025;-88
2023/12/19 04:51:40;;;;;;;28.33;12.60;;;;;;;4.81;100.00;102111.50;5031940;28;20029;-89
2023/12/19 04:54:08;;;;;;;29.10;12.63;;;;;;;4.85;100.00;102115.00;5030779;28;20044;-89
2023/12/19 04:56:33;;;;;;;30.83;14.40;;;;;;;4.86;100.00;102107.31;5029865;28;20033;-88
2023/12/19 04:58:58;;;;;;;31.33;14.48;;;;;;;4.86;100.00;102093.53;5035264;28;20469;-88
2023/12/19 05:01:25;;;;;;;35.95;13.20;;;;;;;4.89;100.00;102088.44;5033796;28;20116;-87
2023/12/19 05:03:50;;;;;;;29.73;13.03;;;;;;;4.94;100.00;102096.25;5030720;28;20067;-87
2023/12/19 05:06:18;;;;;;;30.23;13.70;;;;;;;4.91;100.00;102084.19;5033541;28;20029;-88
2023/12/19 05:08:47;;;;;;;31.57;13.67;;;;;;;4.94;100.00;102080.78;5032629;28;20056;-87
2023/12/19 05:11:14;;;;;;;28.17;13.27;;;;;;;4.94;100.00;102081.66;5029724;28;20438;-88
2023/12/19 05:13:40;;;;;;;29.00;13.20;;;;;;;4.96;100.00;102090.25;5030824;28;20115;-88
2023/12/19 05:16:15;;;;;;;34.03;14.52;;;;;;;4.97;100.00;102081.69;5032581;28;20053;-87
2023/12/19 05:18:41;;;;;;;28.58;13.57;;;;;;;4.98;100.00;102080.00;5029631;28;20441;-88
2023/12/19 05:21:10;;;;;;;30.77;13.90;;;;;;;5.01;100.00;102078.34;5031259;28;20108;-87
2023/12/19 05:23:36;;;;;;;30.70;14.13;;;;;;;5.04;100.00;102084.38;5034820;28;20025;-88
2023/12/19 05:26:06;;;;;;;27.67;12.40;;;;;;;5.05;100.00;102083.56;5036182;28;20060;-88
2023/12/19 05:28:34;;;;;;;29.05;13.82;;;;;;;5.07;100.00;102082.72;5031791;28;20041;-88
2023/12/19 05:30:59;;;;;;;31.30;14.50;;;;;;;5.11;100.00;102092.25;5034054;28;20029;-88
2023/12/19 05:33:26;;;;;;;29.43;13.47;;;;;;;5.13;100.00;102087.09;5029730;28;20052;-88
2023/12/19 05:35:52;;;;;;;28.17;13.50;;;;;;;5.16;100.00;102089.75;5043818;28;20112;-87
2023/12/19 05:38:18;;;;;;;28.30;13.73;;;;;;;5.17;100.00;102083.75;5034177;28;20155;-89
2023/12/19 05:40:43;;;;;;;27.80;13.40;;;;;;;5.21;100.00;102079.53;5032818;28;20048;-88
2023/12/19 05:43:09;;;;;;;29.20;13.48;;;;;;;5.18;100.00;102064.84;5037704;28;20449;-88
2023/12/19 05:45:34;;;;;;;32.95;13.95;;;;;;;5.21;100.00;102064.06;5033165;28;20017;-88
2023/12/19 05:48:00;;;;;;;29.42;14.60;;;;;;;5.23;100.00;102063.22;5029536;28;20037;-87
2023/12/19 05:50:25;;;;;;;28.60;14.98;;;;;;;5.21;100.00;102088.13;5030460;28;20049;-87
2023/12/19 05:52:52;;;;;;;27.90;13.97;;;;;;;5.21;100.00;102080.38;5032722;28;20037;-87
2023/12/19 05:55:19;;;;;;;25.10;13.30;;;;;;;5.26;100.00;102080.44;5035909;28;20483;-88
2023/12/19 05:57:44;;;;;;;29.90;14.07;;;;;;;5.23;100.00;102063.22;5033195;28;20029;-89
2023/12/19 06:00:12;;;;;;;28.90;13.53;;;;;;;5.27;100.00;102058.97;5034873;28;20021;-88
2023/12/19 06:02:37;;;;;;;27.80;12.97;;;;;;;5.27;100.00;102052.13;5031698;28;20087;-88
2023/12/19 06:05:07;;;;;;;29.75;14.25;;;;;;;5.29;100.00;102037.53;5033949;28;20053;-88
2023/12/19 06:07:36;;;;;;;27.48;14.52;;;;;;;5.30;100.00;102028.91;5029444;28;20103;-88
2023/12/19 06:10:02;;;;;;;28.15;13.38;;;;;;;5.32;100.00;102024.66;5035210;28;20018;-86
2023/12/19 06:12:28;;;;;;;30.52;14.02;;;;;;;5.35;100.00;102026.44;5031693;28;20053;-86
2023/12/19 06:14:53;;;;;;;27.35;14.05;;;;;;;5.36;100.00;102040.19;5039821;28;20036;-88
2023/12/19 06:17:19;;;;;;;27.83;14.45;;;;;;;5.37;100.00;102024.75;5039622;28;20053;-88
2023/12/19 06:19:44;;;;;;;27.52;13.68;;;;;;;5.42;100.00;102033.41;5038983;28;20031;-88
2023/12/19 06:22:10;;;;;;;28.57;14.07;;;;;;;5.41;100.00;102036.81;5038404;28;20125;-88
2023/12/19 06:24:35;;;;;;;25.73;13.75;;;;;;;5.41;100.00;102038.56;5032118;28;20185;-89
2023/12/19 06:27:02;;;;;;;26.58;14.00;;;;;;;5.45;100.00;102037.75;5032967;28;20030;-88
2023/12/19 06:29:28;;;;;;;27.73;12.88;;;;;;;5.43;100.00;102018.81;5033620;28;20025;-88
2023/12/19 06:31:54;;;;;;;27.35;13.23;;;;;;;5.45;100.00;102009.38;5033246;28;20060;-87
2023/12/19 06:34:22;;;;;;;26.40;13.45;;;;;;;5.47;100.00;102025.72;5033681;28;20061;-89
2023/12/19 06:36:47;;;;;;;26.58;13.45;;;;;;;5.45;100.00;102020.53;5036456;28;20021;-88
2023/12/19 06:39:13;;;;;;;25.10;12.68;;;;;;;5.45;100.00;102023.13;5032877;28;20025;-88
2023/12/19 06:41:38;;;;;;;26.80;12.55;;;;;;;5.47;100.00;102033.47;5032498;28;20026;-88
2023/12/19 06:44:03;;;;;;;24.58;13.07;;;;;;;5.45;100.00;102028.28;5033559;28;20372;-87
2023/12/19 06:46:29;;;;;;;28.05;13.60;;;;;;;5.50;100.00;102022.34;5033974;28;20021;-89
2023/12/19 06:48:54;;;;;;;26.08;13.00;;;;;;;5.50;100.00;102020.59;5033731;28;20080;-88
2023/12/19 06:51:26;;;;;;;29.48;13.60;;;;;;;5.53;100.00;102023.22;5033471;28;20029;-87
2023/12/19 06:53:54;;;;;;;23.47;12.63;;;;;;;5.57;100.00;102022.44;5033312;28;20024;-88
2023/12/19 06:56:20;;;;;;;23.05;12.77;;;;;;;5.57;100.00;102014.69;5033193;28;20013;-88
2023/12/19 06:58:45;;;;;;;24.10;12.95;;;;;;;5.56;100.00;102019.81;5033498;28;20040;-88
2023/12/19 07:01:10;;;;;;;23.10;12.68;;;;;;;5.56;100.00;102024.97;5033111;28;20033;-88
2023/12/19 07:03:36;;;;;;;25.35;13.25;;;;;;;5.57;100.00;102027.59;5032311;28;20473;-89
2023/12/19 07:06:02;;;;;;;24.42;12.82;;;;;;;5.58;100.00;102016.44;5043418;28;20515;-88
2023/12/19 07:08:28;;;;;;;22.55;12.05;;;;;;;5.61;100.00;102016.47;5032657;28;20403;-88
2023/12/19 07:10:53;;;;;;;23.60;12.57;;;;;;;5.59;100.00;102009.53;5033440;28;20029;-88
2023/12/19 07:13:18;;;;;;;24.17;12.00;;;;;;;5.64;100.00;102009.63;5032903;28;20049;-87
2023/12/19 07:15:43;;;;;;;23.65;12.40;;;;;;;5.62;100.00;102005.31;5032740;28;20029;-88
2023/12/19 07:18:09;;;;;;;23.65;12.25;;;;;;;5.65;100.00;102001.00;5032094;28;20362;-88
2023/12/19 07:20:34;;;;;;;26.38;12.07;;;;;;;5.64;100.00;102001.88;5033271;28;20025;-87
2023/12/19 07:22:59;;;;;;;19.88;11.80;;;;;;;5.67;100.00;102017.38;5031414;28;20027;-88
2023/12/19 07:25:26;;;;;;;24.15;12.63;;;;;;;5.69;100.00;102000.22;5035106;28;20029;-88
2023/12/19 07:27:51;;;;;;;23.05;12.88;;;;;;;5.67;100.00;102000.19;5031430;28;20033;-89
2023/12/19 07:30:16;;;;;;;19.50;11.07;;;;;;;5.65;100.00;101991.56;5033103;28;20481;-88
2023/12/19 07:32:42;;;;;;;22.90;12.02;;;;;;;5.71;100.00;101993.34;5032351;28;20589;-87
2023/12/19 07:35:08;;;;;;;26.75;12.30;;;;;;;5.71;100.00;101989.06;5030998;28;20032;-87
2023/12/19 07:37:33;;;;;;;22.27;11.85;;;;;;;5.71;100.00;101988.19;5032577;28;20366;-88
2023/12/19 07:39:59;;;;;;;19.85;11.52;;;;;;;5.74;100.00;101995.97;5032650;28;20121;-88
2023/12/19 07:42:24;;;;;;;22.05;11.52;;;;;;;5.73;100.00;102002.84;5032468;28;20410;-88
2023/12/19 07:44:50;;;;;;;20.75;11.55;;;;;;;5.75;100.00;102008.03;5032906;28;20092;-88
2023/12/19 07:47:15;;;;;;;20.20;11.05;;;;;;;5.74;100.00;102008.91;5032483;28;20025;-88
2023/12/19 07:49:41;;;;;;;21.95;10.63;;;;;;;5.76;100.00;102004.63;5031332;28;20025;-88
2023/12/19 07:52:06;;;;;;;24.95;11.88;;;;;;;5.76;100.00;102002.03;5032407;28;20029;-88
2023/12/19 07:54:31;;;;;;;20.77;11.20;;;;;;;5.76;100.00;102002.03;5032566;28;20018;-89
2023/12/19 07:56:58;;;;;;;23.60;11.32;;;;;;;5.78;100.00;101990.88;5031009;28;20029;-88
2023/12/19 07:59:23;;;;;;;21.10;11.27;;;;;;;5.80;100.00;101992.59;5032070;28;20017;-89
2023/12/19 08:01:48;;;;;;;23.52;11.93;;;;;;;5.83;100.00;101992.66;5035737;28;20029;-88
2023/12/19 08:04:14;;;;;;;20.80;11.23;;;;;;;5.83;100.00;101982.31;5029629;28;20104;-88
2023/12/19 08:06:41;;;;;;;19.42;10.95;;;;;;;5.84;100.00;101986.63;5030452;28;20079;-88
2023/12/19 08:09:10;;;;;;;18.75;10.40;;;;;;;5.86;100.00;101983.22;5045658;28;20370;-87
2023/12/19 08:11:36;;;;;;;19.48;10.73;;;;;;;5.87;100.00;101977.22;5039645;28;20151;-87
2023/12/19 08:14:01;;;;;;;18.70;10.38;;;;;;;5.88;100.00;101972.94;5028849;28;21407;-88
2023/12/19 08:16:27;;;;;;;19.90;10.73;;;;;;;5.88;100.00;101972.94;5029641;28;20033;-88
2023/12/19 08:18:52;;;;;;;17.95;10.02;;;;;;;5.90;100.00;101968.63;5031161;28;20029;-88
2023/12/19 08:21:17;;;;;;;16.23;9.93;;;;;;;5.89;100.00;101962.59;5031311;28;20112;-88
2023/12/19 08:23:45;;;;;;;17.42;10.05;;;;;;;5.92;100.00;101966.91;5031736;28;20068;-89
2023/12/19 08:26:10;;;;;;;20.10;9.93;;;;;;;5.95;100.00;101976.44;5029884;28;20053;-87
2023/12/19 08:28:36;;;;;;;17.73;9.88;;;;;;;5.92;100.00;101983.31;5033771;28;20044;-89
2023/12/19 08:31:03;;;;;;;15.57;9.80;;;;;;;5.90;100.00;101969.50;5031660;28;20029;-88
2023/12/19 08:33:30;;;;;;;16.02;9.57;;;;;;;5.89;100.00;101954.84;5030733;28;20113;-88
2023/12/19 08:35:55;;;;;;;18.20;9.57;;;;;;;5.89;100.00;101967.75;5025852;28;20453;-88
2023/12/19 08:38:20;;;;;;;16.58;9.02;;;;;;;5.89;100.00;101967.75;5030137;28;20104;-88
2023/12/19 08:40:46;;;;;;;15.52;9.00;;;;;;;5.87;100.00;101969.47;5030567;28;20152;-88
2023/12/19 08:43:11;;;;;;;15.50;8.93;;;;;;;5.86;100.00;101953.97;5030614;28;20120;-88
2023/12/19 08:45:37;;;;;;;15.82;8.48;;;;;;;5.87;100.00;101953.09;5035160;28;20358;-88
2023/12/19 08:48:04;;;;;;;15.88;8.93;;;;;;;5.85;100.00;101955.66;5029810;28;20060;-88
2023/12/19 08:50:30;;;;;;;18.75;9.23;;;;;;;5.84;100.00;101951.34;5029468;28;20133;-88
2023/12/19 08:52:55;;;;;;;16.05;9.15;;;;;;;5.82;100.00;101950.44;5033212;28;20520;-88
2023/12/19 08:55:21;;;;;;;17.20;8.68;;;;;;;5.83;100.00;101947.03;5029889;28;20029;-87
2023/12/19 08:57:46;;;;;;;13.82;8.38;;;;;;;5.81;100.00;101951.28;5030464;28;20033;-88
2023/12/19 09:00:16;;;;;;;13.23;8.25;;;;;;;5.80;100.00;101946.13;5029526;28;20029;-87
2023/12/19 09:02:43;;;;;;;14.57;8.35;;;;;;;5.79;100.00;101945.28;5032061;28;20021;-87
2023/12/19 09:05:10;;;;;;;14.05;8.00;;;;;;;5.78;100.00;101939.22;5031377;28;20028;-90
2023/12/19 09:07:36;;;;;;;15.90;8.32;;;;;;;5.77;100.00;101934.91;5037773;28;20033;-88
2023/12/19 09:10:02;;;;;;;14.43;7.90;;;;;;;5.79;100.00;101932.38;5030859;28;20087;-87
2023/12/19 09:12:28;;;;;;;14.60;7.72;;;;;;;5.75;100.00;101930.59;5034969;28;20103;-88
2023/12/19 09:14:53;;;;;;;14.45;8.45;;;;;;;5.77;100.00;101931.47;5033438;28;20412;-88
2023/12/19 09:17:18;;;;;;;13.85;7.80;;;;;;;5.78;100.00;101943.53;5035741;28;20147;-87
2023/12/19 09:19:44;;;;;;;17.58;9.00;;;;;;;5.77;100.00;101921.16;5038134;28;20025;-89
2023/12/19 09:22:10;;;;;;;13.63;7.85;;;;;;;5.74;100.00;101927.13;5031545;28;20020;-88
2023/12/19 09:24:36;;;;;;;14.15;7.57;;;;;;;5.75;100.00;101922.84;5038021;28;20072;-88
2023/12/19 09:27:02;;;;;;;15.77;8.32;;;;;;;5.74;100.00;101926.28;5031473;28;20052;-88
2023/12/19 09:29:27;;;;;;;13.48;7.97;;;;;;;5.75;100.00;101918.53;5044693;28;20477;-88
2023/12/19 09:31:54;;;;;;;14.25;7.50;;;;;;;5.74;100.00;101911.63;5050926;28;20017;-87
2023/12/19 09:34:19;;;;;;;12.40;6.88;;;;;;;5.76;100.00;101903.91;5035817;28;20017;-87
2023/12/19 09:36:45;;;;;;;13.60;7.82;;;;;;;5.77;100.00;101915.97;5030282;28;20040;-88
2023/12/19 09:39:14;;;;;;;13.63;7.15;;;;;;;5.76;100.00;101906.50;5029555;28;20025;-88
2023/12/19 09:41:45;;;;;;;13.45;7.22;;;;;;;5.76;100.00;101903.91;5034728;28;20036;-87
2023/12/19 09:44:11;;;;;;;13.57;7.20;;;;;;;5.76;100.00;101919.41;5048871;28;20100;-87
2023/12/19 09:46:37;;;;;;;14.02;7.38;;;;;;;5.76;100.00;101920.25;5032466;28;20053;-87
2023/12/19 09:49:02;;;;;;;10.73;6.38;;;;;;;5.78;100.00;101915.13;5033857;28;20483;-88
2023/12/19 09:51:34;;;;;;;11.50;6.70;;;;;;;5.76;100.00;101897.03;5049902;28;20112;-87
2023/12/19 09:54:01;;;;;;;11.38;6.57;;;;;;;5.78;100.00;101902.22;5053444;28;20035;-86
2023/12/19 09:56:28;;;;;;;11.57;6.20;;;;;;;5.78;100.00;101903.06;5050812;28;20036;-87
2023/12/19 09:59:00;;;;;;;10.35;5.90;;;;;;;5.78;100.00;101897.91;5034645;28;20029;-87
2023/12/19 10:01:25;;;;;;;9.80;5.68;;;;;;;5.80;100.00;101879.00;5033875;28;20032;-87
2023/12/19 10:03:55;;;;;;;10.35;5.72;;;;;;;5.83;100.00;101890.22;5038277;28;20021;-88
2023/12/19 10:06:22;;;;;;;9.65;5.80;;;;;;;5.81;100.00;101871.25;5044964;28;20025;-87
2023/12/19 10:08:53;;;;;;;8.02;4.93;;;;;;;5.82;100.00;101878.13;5039229;28;20368;-88
2023/12/19 10:11:27;;;;;;;9.00;5.10;;;;;;;5.83;100.00;101869.53;5031690;28;20404;-88
2023/12/19 10:14:07;;;;;;;8.10;5.40;;;;;;;5.86;100.00;101868.72;5034813;28;20479;-86
2023/12/19 10:16:38;;;;;;;7.80;4.93;;;;;;;5.86;100.00;101863.56;5033806;28;20061;-87
2023/12/19 10:19:03;;;;;;;7.40;4.38;;;;;;;5.86;100.00;101854.09;5037972;28;20037;-87
2023/12/19 10:21:28;;;;;;;8.65;5.10;;;;;;;5.87;100.00;101855.81;5033800;28;20025;-86
2023/12/19 10:24:06;;;;;;;7.32;4.53;;;;;;;5.92;100.00;101854.16;5033943;28;20033;-87
2023/12/19 10:26:33;;;;;;;8.50;4.55;;;;;;;5.93;100.00;101853.31;5033167;28;20091;-86
2023/12/19 10:28:59;;;;;;;7.55;4.72;;;;;;;5.93;100.00;101844.69;5032965;28;20061;-86
2023/12/19 10:31:24;;;;;;;6.70;4.38;;;;;;;5.93;100.00;101852.44;5035773;28;20137;-86
2023/12/19 10:33:54;;;;;;;8.00;4.63;;;;;;;5.92;100.00;101853.28;5038330;28;20064;-86
2023/12/19 10:36:25;;;;;;;7.63;4.78;;;;;;;5.90;100.00;101853.28;5050573;28;20060;-85
2023/12/19 10:38:55;;;;;;;7.18;4.28;;;;;;;5.95;100.00;101821.47;5049224;28;20115;-89
2023/12/19 10:41:35;;;;;;;7.13;4.68;;;;;;;5.96;100.00;101823.19;5040386;28;20481;-86
2023/12/19 10:44:01;;;;;;;7.18;4.40;;;;;;;5.97;100.00;101809.44;5032380;28;20022;-86
2023/12/19 10:46:32;;;;;;;8.07;4.43;;;;;;;5.97;100.00;101818.03;5033459;28;20060;-87
2023/12/19 10:49:01;;;;;;;7.90;4.43;;;;;;;5.97;100.00;101804.28;5033407;28;20048;-86
2023/12/19 10:51:32;;;;;;;8.83;4.90;;;;;;;5.98;100.00;101798.25;5014048;28;20021;-86
2023/12/19 10:54:15;;;;;;;6.53;4.43;;;;;;;6.01;100.00;101806.03;5031956;28;20032;-87
2023/12/19 10:57:18;;;;;;;8.23;4.75;;;;;;;6.00;100.00;101812.06;5035002;28;20037;-89
2023/12/19 11:00:09;;;;;;;7.53;4.47;;;;;;;5.99;100.00;101789.63;5031917;28;20028;-86
2023/12/19 11:02:45;;;;;;;7.15;4.68;;;;;;;6.01;100.00;101775.03;5026580;28;20436;-91
2023/12/19 11:05:25;;;;;;;7.43;4.83;;;;;;;6.00;100.00;101773.31;5031399;28;20021;-88
2023/12/19 11:08:02;;;;;;;6.90;4.47;;;;;;;5.99;100.00;101756.03;5033528;28;20056;-87
2023/12/19 11:10:36;;;;;;;7.90;4.53;;;;;;;6.03;100.00;101755.25;5031793;28;20038;-87